Ord, Nebraska
Current Conditions -  °F | °C
As of 6:53 AM on Sunday 21 Dec 2014 (Local Time) from KBBW Reporting Station
Few Clouds Few Clouds  
Wind Chill: 30°   Ceiling: Unl
Heat Index: 30°   Visibility: 8mi
Dew Point: 27°   Wind: 0mph
Humidity: 88%   Direction: NA
Pressure: 29.76"   Gusts: NA
Location:  41.6°N, 98.93°W
Report Text: KBBW 211253Z AUTO 00000KT 8SM FEW110 M01/M03 A2976 RMK AO2 SLP099 T10111028
Loading
Personal Weather Stations






























Interactive Weather Map New forecast layout! Learn more

10-Day Weather Forecast

Advertisements
Track Severe Weather on mobile